Terminal Aerodrome Forecast
Issued by NWS Shreveport, LA

Home | Current Version | Previous Version | Text Only | Print | Product List | Glossary On
Versions: 1 2 3 4 5 6 7 8 9 10 11 12 13 14 15 16 17 18
000
FTUS44 KSHV 251100 RRA
TAFMLU
TAF
KMLU 251143Z 2512/2612 17004KT P6SM SKC
      TEMPO 2512/2514 5SM BR
     FM251800 18010KT P6SM SKC
     FM260000 17005KT P6SM SKC
     FM260600 17004KT P6SM SCT250=

USA.gov is the U.S. government's official web portal to all federal, state and local government web resources and services.